sensor_id;sensor_type;location;lat;lon;timestamp;pressure;altitude;pressure_sealevel;temperature;humidity
59519;BME280;46994;54.976;73.404;2022-09-03T00:02:23;100192.75;;;20.12;61.41
59519;BME280;46994;54.976;73.404;2022-09-03T00:05:16;100198.03;;;20.30;61.80
59519;BME280;46994;54.976;73.404;2022-09-03T00:10:55;100172.28;;;20.21;61.39
59519;BME280;46994;54.976;73.404;2022-09-03T00:13:30;100190.19;;;20.34;59.52
59519;BME280;46994;54.976;73.404;2022-09-03T00:15:58;100187.44;;;20.17;60.50
59519;BME280;46994;54.976;73.404;2022-09-03T00:18:31;100186.50;;;20.12;61.39
59519;BME280;46994;54.976;73.404;2022-09-03T00:21:07;100174.78;;;20.11;62.18
59519;BME280;46994;54.976;73.404;2022-09-03T00:23:38;100166.00;;;20.21;60.51
59519;BME280;46994;54.976;73.404;2022-09-03T00:28:46;100190.38;;;20.27;61.66
59519;BME280;46994;54.976;73.404;2022-09-03T00:31:20;100171.16;;;20.34;61.30
59519;BME280;46994;54.976;73.404;2022-09-03T00:33:49;100195.88;;;20.44;61.18
59519;BME280;46994;54.976;73.404;2022-09-03T00:36:28;100193.88;;;20.40;61.06
59519;BME280;46994;54.976;73.404;2022-09-03T00:38:57;100159.50;;;20.22;60.23
59519;BME280;46994;54.976;73.404;2022-09-03T00:44:18;100174.66;;;20.18;61.73
59519;BME280;46994;54.976;73.404;2022-09-03T00:47:01;100146.56;;;20.00;62.42
59519;BME280;46994;54.976;73.404;2022-09-03T00:49:54;100173.34;;;20.20;62.44
59519;BME280;46994;54.976;73.404;2022-09-03T00:52:37;100173.97;;;20.11;61.10
59519;BME280;46994;54.976;73.404;2022-09-03T00:58:18;100170.66;;;20.09;62.46
59519;BME280;46994;54.976;73.404;2022-09-03T01:00:47;100173.44;;;20.25;61.98
59519;BME280;46994;54.976;73.404;2022-09-03T01:03:32;100156.78;;;20.50;61.83
59519;BME280;46994;54.976;73.404;2022-09-03T01:11:38;100132.47;;;20.60;60.96
59519;BME280;46994;54.976;73.404;2022-09-03T01:14:32;100158.66;;;20.78;61.12
59519;BME280;46994;54.976;73.404;2022-09-03T01:17:15;100159.00;;;20.82;61.12
59519;BME280;46994;54.976;73.404;2022-09-03T01:20:02;100173.53;;;20.87;60.65
59519;BME280;46994;54.976;73.404;2022-09-03T01:33:49;100159.25;;;20.80;61.19
59519;BME280;46994;54.976;73.404;2022-09-03T01:39:13;100114.41;;;20.71;61.00
59519;BME280;46994;54.976;73.404;2022-09-03T01:48:03;100135.63;;;21.03;60.50
59519;BME280;46994;54.976;73.404;2022-09-03T01:50:43;100125.38;;;20.93;61.31
59519;BME280;46994;54.976;73.404;2022-09-03T01:56:18;100122.66;;;20.93;59.16
59519;BME280;46994;54.976;73.404;2022-09-03T01:59:37;100120.53;;;20.95;58.96
59519;BME280;46994;54.976;73.404;2022-09-03T02:02:22;100119.53;;;21.01;60.36
59519;BME280;46994;54.976;73.404;2022-09-03T02:10:40;100105.25;;;21.28;59.70
59519;BME280;46994;54.976;73.404;2022-09-03T02:13:12;100088.78;;;21.23;59.70
59519;BME280;46994;54.976;73.404;2022-09-03T02:15:44;100091.78;;;21.38;59.17
59519;BME280;46994;54.976;73.404;2022-09-03T02:18:29;100111.31;;;21.52;58.99
59519;BME280;46994;54.976;73.404;2022-09-03T02:20:58;100116.84;;;21.57;59.17
59519;BME280;46994;54.976;73.404;2022-09-03T02:23:26;100112.84;;;21.64;58.48
59519;BME280;46994;54.976;73.404;2022-09-03T02:25:59;100108.47;;;21.63;58.36
59519;BME280;46994;54.976;73.404;2022-09-03T02:28:28;100085.75;;;21.58;58.17
59519;BME280;46994;54.976;73.404;2022-09-03T02:30:55;100101.44;;;21.67;58.54
59519;BME280;46994;54.976;73.404;2022-09-03T02:33:22;100075.13;;;21.56;58.34
59519;BME280;46994;54.976;73.404;2022-09-03T02:35:50;100084.28;;;21.72;57.66
59519;BME280;46994;54.976;73.404;2022-09-03T02:38:22;100080.13;;;21.64;56.60
59519;BME280;46994;54.976;73.404;2022-09-03T02:40:51;100069.44;;;21.63;57.15
59519;BME280;46994;54.976;73.404;2022-09-03T02:43:26;100056.50;;;21.53;58.59
59519;BME280;46994;54.976;73.404;2022-09-03T02:46:01;100056.41;;;21.65;57.87
59519;BME280;46994;54.976;73.404;2022-09-03T02:48:28;100067.47;;;21.80;57.90
59519;BME280;46994;54.976;73.404;2022-09-03T02:50:54;100047.81;;;21.78;57.85
59519;BME280;46994;54.976;73.404;2022-09-03T02:53:21;100067.59;;;21.90;57.89
59519;BME280;46994;54.976;73.404;2022-09-03T02:55:48;100060.44;;;21.84;57.50
59519;BME280;46994;54.976;73.404;2022-09-03T02:58:15;100038.50;;;21.74;57.85
59519;BME280;46994;54.976;73.404;2022-09-03T03:00:41;100059.97;;;21.92;57.62
59519;BME280;46994;54.976;73.404;2022-09-03T03:03:08;100040.56;;;21.89;57.43
59519;BME280;46994;54.976;73.404;2022-09-03T03:08:13;100059.81;;;22.26;55.93
59519;BME280;46994;54.976;73.404;2022-09-03T03:10:47;100046.91;;;22.16;56.48
59519;BME280;46994;54.976;73.404;2022-09-03T03:13:15;100058.53;;;22.33;56.32
59519;BME280;46994;54.976;73.404;2022-09-03T03:15:42;100059.47;;;22.44;55.27
59519;BME280;46994;54.976;73.404;2022-09-03T03:18:10;100044.16;;;22.43;54.91
59519;BME280;46994;54.976;73.404;2022-09-03T03:20:40;100049.91;;;22.47;55.44
59519;BME280;46994;54.976;73.404;2022-09-03T03:23:08;100057.38;;;22.56;55.29
59519;BME280;46994;54.976;73.404;2022-09-03T03:25:37;100024.78;;;22.45;53.86
59519;BME280;46994;54.976;73.404;2022-09-03T03:28:04;100034.88;;;22.44;54.84
59519;BME280;46994;54.976;73.404;2022-09-03T03:30:32;100050.19;;;22.50;55.05
59519;BME280;46994;54.976;73.404;2022-09-03T03:32:59;100027.25;;;22.46;54.25
59519;BME280;46994;54.976;73.404;2022-09-03T03:35:26;100058.53;;;22.66;52.76
59519;BME280;46994;54.976;73.404;2022-09-03T03:37:53;100047.41;;;22.72;53.82
59519;BME280;46994;54.976;73.404;2022-09-03T03:40:21;100052.88;;;22.77;53.62
59519;BME280;46994;54.976;73.404;2022-09-03T03:42:48;100038.41;;;22.77;52.54
59519;BME280;46994;54.976;73.404;2022-09-03T03:45:15;100016.25;;;22.73;53.16
59519;BME280;46994;54.976;73.404;2022-09-03T03:47:42;100032.00;;;22.93;53.84
59519;BME280;46994;54.976;73.404;2022-09-03T03:50:09;100022.66;;;22.89;54.23
59519;BME280;46994;54.976;73.404;2022-09-03T03:52:36;100012.06;;;22.98;52.90
59519;BME280;46994;54.976;73.404;2022-09-03T03:55:03;100025.28;;;23.11;54.25
59519;BME280;46994;54.976;73.404;2022-09-03T03:57:30;100034.06;;;23.18;51.97
59519;BME280;46994;54.976;73.404;2022-09-03T03:59:57;100026.16;;;23.27;53.12
59519;BME280;46994;54.976;73.404;2022-09-03T04:02:24;100022.06;;;23.29;53.87
59519;BME280;46994;54.976;73.404;2022-09-03T04:04:51;100008.41;;;23.29;51.60
59519;BME280;46994;54.976;73.404;2022-09-03T04:07:18;100017.47;;;23.40;53.47
59519;BME280;46994;54.976;73.404;2022-09-03T04:09:44;100002.41;;;23.32;50.34
59519;BME280;46994;54.976;73.404;2022-09-03T04:12:12;100004.38;;;23.47;52.24
59519;BME280;46994;54.976;73.404;2022-09-03T04:14:39;100010.66;;;23.47;52.58
59519;BME280;46994;54.976;73.404;2022-09-03T04:17:08;100005.22;;;23.58;51.68
59519;BME280;46994;54.976;73.404;2022-09-03T04:19:36;100001.41;;;23.54;52.22
59519;BME280;46994;54.976;73.404;2022-09-03T04:22:04;100016.25;;;23.68;50.47
59519;BME280;46994;54.976;73.404;2022-09-03T04:24:32;100006.94;;;23.64;51.53
59519;BME280;46994;54.976;73.404;2022-09-03T04:26:59;99972.75;;;23.61;49.74
59519;BME280;46994;54.976;73.404;2022-09-03T04:29:26;99964.25;;;23.63;49.79
59519;BME280;46994;54.976;73.404;2022-09-03T04:31:56;99989.47;;;23.85;50.22
59519;BME280;46994;54.976;73.404;2022-09-03T04:34:53;99966.47;;;23.86;49.81
59519;BME280;46994;54.976;73.404;2022-09-03T04:37:20;99987.03;;;24.04;50.41
59519;BME280;46994;54.976;73.404;2022-09-03T04:39:47;99986.22;;;24.14;50.19
59519;BME280;46994;54.976;73.404;2022-09-03T04:42:14;99965.69;;;24.16;49.58
59519;BME280;46994;54.976;73.404;2022-09-03T04:44:40;99964.88;;;24.21;49.83
59519;BME280;46994;54.976;73.404;2022-09-03T04:47:07;99965.44;;;24.23;49.51
59519;BME280;46994;54.976;73.404;2022-09-03T04:49:34;99954.78;;;24.31;47.87
59519;BME280;46994;54.976;73.404;2022-09-03T04:52:02;99975.03;;;24.56;48.62
59519;BME280;46994;54.976;73.404;2022-09-03T04:54:29;99953.94;;;24.46;48.82
59519;BME280;46994;54.976;73.404;2022-09-03T04:56:56;99966.50;;;24.73;48.34
59519;BME280;46994;54.976;73.404;2022-09-03T04:59:23;99942.13;;;24.71;48.27
59519;BME280;46994;54.976;73.404;2022-09-03T05:01:50;99947.03;;;24.74;47.88
59519;BME280;46994;54.976;73.404;2022-09-03T05:04:18;99937.97;;;24.89;47.69
59519;BME280;46994;54.976;73.404;2022-09-03T05:06:45;99985.00;;;25.37;46.60
59519;BME280;46994;54.976;73.404;2022-09-03T05:09:12;99964.03;;;25.56;44.96
59519;BME280;46994;54.976;73.404;2022-09-03T05:11:39;99970.69;;;25.94;44.88
59519;BME280;46994;54.976;73.404;2022-09-03T05:14:08;99932.44;;;26.08;44.56
59519;BME280;46994;54.976;73.404;2022-09-03T05:16:38;99960.94;;;26.17;45.71
59519;BME280;46994;54.976;73.404;2022-09-03T05:19:05;99962.41;;;26.34;45.09
59519;BME280;46994;54.976;73.404;2022-09-03T05:21:34;99929.75;;;26.32;45.39
59519;BME280;46994;54.976;73.404;2022-09-03T05:24:03;99951.56;;;26.52;45.17
59519;BME280;46994;54.976;73.404;2022-09-03T05:26:35;99906.72;;;26.28;45.28
59519;BME280;46994;54.976;73.404;2022-09-03T05:29:04;99936.88;;;26.38;47.35
59519;BME280;46994;54.976;73.404;2022-09-03T05:31:37;99918.63;;;26.13;47.67
59519;BME280;46994;54.976;73.404;2022-09-03T05:34:05;99923.09;;;26.09;49.05
59519;BME280;46994;54.976;73.404;2022-09-03T05:36:34;99922.63;;;25.97;49.92
59519;BME280;46994;54.976;73.404;2022-09-03T05:39:03;99924.88;;;25.90;48.69
59519;BME280;46994;54.976;73.404;2022-09-03T05:41:30;99925.00;;;26.09;47.62
59519;BME280;46994;54.976;73.404;2022-09-03T05:43:59;99926.88;;;26.13;45.27
59519;BME280;46994;54.976;73.404;2022-09-03T05:46:28;99952.06;;;26.25;45.70
59519;BME280;46994;54.976;73.404;2022-09-03T05:49:00;99945.03;;;26.48;44.99
59519;BME280;46994;54.976;73.404;2022-09-03T05:51:28;99928.28;;;26.45;45.99
59519;BME280;46994;54.976;73.404;2022-09-03T05:53:55;99919.84;;;26.65;39.57
59519;BME280;46994;54.976;73.404;2022-09-03T05:56:25;99935.88;;;26.82;43.48
59519;BME280;46994;54.976;73.404;2022-09-03T05:58:53;99932.44;;;26.95;41.16
59519;BME280;46994;54.976;73.404;2022-09-03T06:01:25;99911.25;;;26.96;41.70
59519;BME280;46994;54.976;73.404;2022-09-03T06:03:58;99923.81;;;27.02;39.88
59519;BME280;46994;54.976;73.404;2022-09-03T06:06:26;99926.97;;;26.90;43.31
59519;BME280;46994;54.976;73.404;2022-09-03T06:08:58;99913.34;;;26.56;43.23
59519;BME280;46994;54.976;73.404;2022-09-03T06:11:26;99926.59;;;26.49;42.38
59519;BME280;46994;54.976;73.404;2022-09-03T06:13:55;99948.41;;;26.35;41.17
59519;BME280;46994;54.976;73.404;2022-09-03T06:16:23;99941.13;;;26.20;40.42
59519;BME280;46994;54.976;73.404;2022-09-03T06:18:51;99930.78;;;26.07;39.84
59519;BME280;46994;54.976;73.404;2022-09-03T06:21:19;99946.91;;;26.19;39.94
59519;BME280;46994;54.976;73.404;2022-09-03T06:23:50;99944.25;;;26.09;39.48
59519;BME280;46994;54.976;73.404;2022-09-03T06:26:18;99953.78;;;26.16;39.08
59519;BME280;46994;54.976;73.404;2022-09-03T06:28:45;99930.66;;;25.88;38.88
59519;BME280;46994;54.976;73.404;2022-09-03T06:31:16;99953.44;;;25.89;38.45
59519;BME280;46994;54.976;73.404;2022-09-03T06:33:44;99937.66;;;25.70;38.05
59519;BME280;46994;54.976;73.404;2022-09-03T06:36:14;99960.06;;;25.83;38.30
59519;BME280;46994;54.976;73.404;2022-09-03T06:38:42;99962.50;;;25.89;37.22
59519;BME280;46994;54.976;73.404;2022-09-03T06:41:14;99964.03;;;26.06;36.98
59519;BME280;46994;54.976;73.404;2022-09-03T06:43:47;99963.69;;;26.17;35.86
59519;BME280;46994;54.976;73.404;2022-09-03T06:46:16;99963.25;;;26.39;36.65
59519;BME280;46994;54.976;73.404;2022-09-03T06:48:44;99967.00;;;26.48;37.06
59519;BME280;46994;54.976;73.404;2022-09-03T06:51:17;99953.00;;;26.45;37.43
59519;BME280;46994;54.976;73.404;2022-09-03T06:53:47;99971.19;;;26.70;36.49
59519;BME280;46994;54.976;73.404;2022-09-03T06:56:16;99945.22;;;26.81;34.60
59519;BME280;46994;54.976;73.404;2022-09-03T06:58:45;99951.97;;;26.94;32.83
59519;BME280;46994;54.976;73.404;2022-09-03T07:01:27;99954.41;;;27.24;31.18
59519;BME280;46994;54.976;73.404;2022-09-03T07:03:58;99938.94;;;27.47;33.59
59519;BME280;46994;54.976;73.404;2022-09-03T07:06:35;99944.00;;;27.83;34.56
59519;BME280;46994;54.976;73.404;2022-09-03T07:09:06;99960.41;;;28.07;32.46
59519;BME280;46994;54.976;73.404;2022-09-03T07:11:34;99963.78;;;28.04;30.83
59519;BME280;46994;54.976;73.404;2022-09-03T07:14:03;99939.72;;;27.90;35.99
59519;BME280;46994;54.976;73.404;2022-09-03T07:16:33;99970.09;;;28.04;30.82
59519;BME280;46994;54.976;73.404;2022-09-03T07:19:01;99961.19;;;28.26;31.59
59519;BME280;46994;54.976;73.404;2022-09-03T07:21:31;99948.78;;;28.28;29.24
59519;BME280;46994;54.976;73.404;2022-09-03T07:24:03;99953.25;;;28.57;29.77
59519;BME280;46994;54.976;73.404;2022-09-03T07:26:34;99972.97;;;28.78;32.31
59519;BME280;46994;54.976;73.404;2022-09-03T07:29:01;99957.75;;;28.67;29.00
59519;BME280;46994;54.976;73.404;2022-09-03T07:31:34;99978.66;;;29.00;30.86
59519;BME280;46994;54.976;73.404;2022-09-03T07:34:03;99964.78;;;28.92;30.59
59519;BME280;46994;54.976;73.404;2022-09-03T07:36:36;99969.88;;;29.12;28.31
59519;BME280;46994;54.976;73.404;2022-09-03T07:39:09;99960.47;;;29.27;31.31
59519;BME280;46994;54.976;73.404;2022-09-03T07:41:37;99986.22;;;29.50;29.46
59519;BME280;46994;54.976;73.404;2022-09-03T07:44:04;99977.72;;;29.46;28.61
59519;BME280;46994;54.976;73.404;2022-09-03T07:46:35;99999.63;;;29.70;27.71
59519;BME280;46994;54.976;73.404;2022-09-03T07:49:03;99988.84;;;29.68;27.92
59519;BME280;46994;54.976;73.404;2022-09-03T07:51:33;99980.06;;;29.80;29.13
59519;BME280;46994;54.976;73.404;2022-09-03T07:54:03;99961.22;;;29.68;28.98
59519;BME280;46994;54.976;73.404;2022-09-03T07:56:33;99983.19;;;29.87;28.39
59519;BME280;46994;54.976;73.404;2022-09-03T07:59:02;99968.75;;;29.90;29.16
59519;BME280;46994;54.976;73.404;2022-09-03T08:01:30;99961.28;;;29.91;29.17
59519;BME280;46994;54.976;73.404;2022-09-03T08:03:58;99986.53;;;30.12;27.99
59519;BME280;46994;54.976;73.404;2022-09-03T08:06:27;99989.69;;;30.19;28.93
59519;BME280;46994;54.976;73.404;2022-09-03T08:09:05;99981.25;;;30.24;30.17
59519;BME280;46994;54.976;73.404;2022-09-03T08:11:36;99985.63;;;30.25;31.01
59519;BME280;46994;54.976;73.404;2022-09-03T08:14:06;100003.03;;;30.25;29.45
59519;BME280;46994;54.976;73.404;2022-09-03T08:16:38;99975.00;;;30.18;28.49
59519;BME280;46994;54.976;73.404;2022-09-03T08:19:05;99980.91;;;30.25;29.07
59519;BME280;46994;54.976;73.404;2022-09-03T08:21:32;99992.22;;;30.38;29.23
59519;BME280;46994;54.976;73.404;2022-09-03T08:24:00;99987.56;;;30.47;28.57
59519;BME280;46994;54.976;73.404;2022-09-03T08:26:32;100001.53;;;30.42;28.82
59519;BME280;46994;54.976;73.404;2022-09-03T08:28:59;100001.47;;;30.33;28.93
59519;BME280;46994;54.976;73.404;2022-09-03T08:31:26;100013.34;;;30.34;28.40
59519;BME280;46994;54.976;73.404;2022-09-03T08:33:55;99998.25;;;30.17;28.92
59519;BME280;46994;54.976;73.404;2022-09-03T08:36:30;99986.91;;;30.19;29.28
59519;BME280;46994;54.976;73.404;2022-09-03T08:39:02;100007.91;;;30.20;30.81
59519;BME280;46994;54.976;73.404;2022-09-03T08:41:59;100012.59;;;30.06;30.26
59519;BME280;46994;54.976;73.404;2022-09-03T08:47:15;99992.38;;;30.10;29.34
59519;BME280;46994;54.976;73.404;2022-09-03T08:52:51;99976.03;;;30.22;30.04
59519;BME280;46994;54.976;73.404;2022-09-03T08:55:28;99982.69;;;30.21;30.71
59519;BME280;46994;54.976;73.404;2022-09-03T08:58:04;99991.59;;;30.18;30.10
59519;BME280;46994;54.976;73.404;2022-09-03T09:00:56;99994.22;;;30.01;30.08
59519;BME280;46994;54.976;73.404;2022-09-03T09:06:17;100013.72;;;29.68;30.87
59519;BME280;46994;54.976;73.404;2022-09-03T09:08:48;100015.25;;;29.47;31.76
59519;BME280;46994;54.976;73.404;2022-09-03T09:11:38;100010.56;;;29.34;31.06
59519;BME280;46994;54.976;73.404;2022-09-03T09:17:19;99966.31;;;29.11;32.63
59519;BME280;46994;54.976;73.404;2022-09-03T09:22:31;99962.09;;;29.00;33.12
59519;BME280;46994;54.976;73.404;2022-09-03T09:25:03;99973.56;;;29.07;33.31
59519;BME280;46994;54.976;73.404;2022-09-03T09:27:34;99961.81;;;29.02;32.37
59519;BME280;46994;54.976;73.404;2022-09-03T09:30:04;99975.50;;;29.21;32.71
59519;BME280;46994;54.976;73.404;2022-09-03T09:32:30;99954.47;;;29.11;32.62
59519;BME280;46994;54.976;73.404;2022-09-03T09:34:59;99949.97;;;29.01;33.48
59519;BME280;46994;54.976;73.404;2022-09-03T09:37:26;99963.94;;;29.05;34.59
59519;BME280;46994;54.976;73.404;2022-09-03T09:39:55;99959.00;;;28.88;34.57
59519;BME280;46994;54.976;73.404;2022-09-03T09:42:23;99961.38;;;28.81;35.44
59519;BME280;46994;54.976;73.404;2022-09-03T09:44:50;99935.25;;;28.60;35.11
59519;BME280;46994;54.976;73.404;2022-09-03T09:47:26;99926.88;;;28.51;38.20
59519;BME280;46994;54.976;73.404;2022-09-03T09:49:56;99940.78;;;28.60;38.71
59519;BME280;46994;54.976;73.404;2022-09-03T09:52:25;99949.88;;;28.60;38.55
59519;BME280;46994;54.976;73.404;2022-09-03T09:55:17;99943.41;;;28.51;39.39
59519;BME280;46994;54.976;73.404;2022-09-03T09:57:45;99940.03;;;28.40;38.32
59519;BME280;46994;54.976;73.404;2022-09-03T10:00:18;99949.53;;;28.48;39.83
59519;BME280;46994;54.976;73.404;2022-09-03T10:02:54;99959.13;;;28.37;37.99
59519;BME280;46994;54.976;73.404;2022-09-03T10:05:28;99959.81;;;28.28;38.93
59519;BME280;46994;54.976;73.404;2022-09-03T10:07:59;99946.53;;;28.12;41.16
59519;BME280;46994;54.976;73.404;2022-09-03T10:10:27;99952.66;;;28.09;43.24
59519;BME280;46994;54.976;73.404;2022-09-03T10:13:05;99959.66;;;28.01;39.51
59519;BME280;46994;54.976;73.404;2022-09-03T10:18:18;99933.84;;;27.78;39.85
59519;BME280;46994;54.976;73.404;2022-09-03T10:26:11;99920.06;;;27.97;36.91
59519;BME280;46994;54.976;73.404;2022-09-03T10:28:41;99932.31;;;28.23;40.39
59519;BME280;46994;54.976;73.404;2022-09-03T10:34:00;99898.78;;;28.35;44.80
59519;BME280;46994;54.976;73.404;2022-09-03T10:39:28;99871.34;;;28.44;40.12
59519;BME280;46994;54.976;73.404;2022-09-03T10:42:14;99877.03;;;28.47;39.89
59519;BME280;46994;54.976;73.404;2022-09-03T10:51:05;99857.44;;;28.49;39.00
59519;BME280;46994;54.976;73.404;2022-09-03T11:06:10;99829.28;;;28.19;38.38
59519;BME280;46994;54.976;73.404;2022-09-03T11:08:29;99837.16;;;28.12;39.48
59519;BME280;46994;54.976;73.404;2022-09-03T11:13:39;99829.72;;;28.13;36.72
59519;BME280;46994;54.976;73.404;2022-09-03T11:16:22;99821.81;;;28.06;38.29
59519;BME280;46994;54.976;73.404;2022-09-03T11:18:55;99811.88;;;27.91;38.58
59519;BME280;46994;54.976;73.404;2022-09-03T11:21:25;99826.09;;;27.98;38.23
59519;BME280;46994;54.976;73.404;2022-09-03T11:24:22;99826.09;;;27.98;40.16
59519;BME280;46994;54.976;73.404;2022-09-03T11:27:19;99826.72;;;27.95;40.96
59519;BME280;46994;54.976;73.404;2022-09-03T11:30:10;99831.91;;;27.97;41.81
59519;BME280;46994;54.976;73.404;2022-09-03T11:32:46;99830.47;;;27.99;40.08
59519;BME280;46994;54.976;73.404;2022-09-03T11:35:24;99801.16;;;27.90;38.85
59519;BME280;46994;54.976;73.404;2022-09-03T11:38:30;99819.88;;;28.07;39.91
59519;BME280;46994;54.976;73.404;2022-09-03T11:41:00;99793.78;;;28.04;39.76
59519;BME280;46994;54.976;73.404;2022-09-03T11:43:30;99805.31;;;28.20;42.32
59519;BME280;46994;54.976;73.404;2022-09-03T11:46:06;99802.59;;;28.34;39.87
59519;BME280;46994;54.976;73.404;2022-09-03T11:48:46;99804.03;;;28.45;39.76
59519;BME280;46994;54.976;73.404;2022-09-03T11:53:56;99803.50;;;28.29;40.01
59519;BME280;46994;54.976;73.404;2022-09-03T11:56:24;99801.44;;;28.21;39.75
59519;BME280;46994;54.976;73.404;2022-09-03T12:01:46;99784.88;;;27.93;40.63
59519;BME280;46994;54.976;73.404;2022-09-03T12:04:15;99771.53;;;27.68;38.41
59519;BME280;46994;54.976;73.404;2022-09-03T12:07:05;99779.84;;;27.63;38.49
59519;BME280;46994;54.976;73.404;2022-09-03T12:12:48;99776.00;;;27.64;39.66
59519;BME280;46994;54.976;73.404;2022-09-03T12:18:28;99747.09;;;27.48;38.67
59519;BME280;46994;54.976;73.404;2022-09-03T12:23:45;99737.13;;;27.33;39.75
59519;BME280;46994;54.976;73.404;2022-09-03T12:26:19;99727.53;;;27.30;39.35
59519;BME280;46994;54.976;73.404;2022-09-03T12:29:24;99722.66;;;27.27;40.44
59519;BME280;46994;54.976;73.404;2022-09-03T12:31:52;99723.25;;;27.24;40.97
59519;BME280;46994;54.976;73.404;2022-09-03T12:34:22;99715.25;;;27.09;40.88
59519;BME280;46994;54.976;73.404;2022-09-03T12:36:53;99711.66;;;27.08;39.91
59519;BME280;46994;54.976;73.404;2022-09-03T12:39:25;99712.13;;;27.15;41.53
59519;BME280;46994;54.976;73.404;2022-09-03T12:42:01;99689.78;;;26.98;42.36
59519;BME280;46994;54.976;73.404;2022-09-03T12:47:11;99702.44;;;26.99;42.16
59519;BME280;46994;54.976;73.404;2022-09-03T12:49:40;99674.44;;;26.78;42.74
59519;BME280;46994;54.976;73.404;2022-09-03T12:55:03;99688.94;;;26.65;42.50
59519;BME280;46994;54.976;73.404;2022-09-03T12:57:39;99679.09;;;26.59;44.03
59519;BME280;46994;54.976;73.404;2022-09-03T13:00:09;99646.97;;;26.36;43.77
59519;BME280;46994;54.976;73.404;2022-09-03T13:02:49;99642.28;;;26.17;43.79
59519;BME280;46994;54.976;73.404;2022-09-03T13:05:20;99661.38;;;26.27;43.87
59519;BME280;46994;54.976;73.404;2022-09-03T13:07:51;99639.53;;;26.17;42.87
59519;BME280;46994;54.976;73.404;2022-09-03T13:12:58;99648.75;;;26.26;41.86
59519;BME280;46994;54.976;73.404;2022-09-03T13:15:26;99618.13;;;26.14;42.19
59519;BME280;46994;54.976;73.404;2022-09-03T13:18:15;99634.78;;;26.23;42.91
59519;BME280;46994;54.976;73.404;2022-09-03T13:24:03;99609.44;;;26.07;42.34
59519;BME280;46994;54.976;73.404;2022-09-03T13:29:32;99582.25;;;25.87;41.87
59519;BME280;46994;54.976;73.404;2022-09-03T13:32:16;99600.78;;;25.95;43.68
59519;BME280;46994;54.976;73.404;2022-09-03T13:34:53;99593.81;;;25.84;42.99
59519;BME280;46994;54.976;73.404;2022-09-03T13:40:02;99573.41;;;25.66;44.00
59519;BME280;46994;54.976;73.404;2022-09-03T13:42:49;99561.22;;;25.53;45.06
59519;BME280;46994;54.976;73.404;2022-09-03T13:45:55;99577.66;;;25.53;43.41
59519;BME280;46994;54.976;73.404;2022-09-03T13:48:19;99552.69;;;25.31;44.16
59519;BME280;46994;54.976;73.404;2022-09-03T13:59:27;99542.06;;;25.24;45.29
59519;BME280;46994;54.976;73.404;2022-09-03T14:04:50;99532.25;;;25.18;43.17
59519;BME280;46994;54.976;73.404;2022-09-03T14:07:57;99527.53;;;25.24;45.79
59519;BME280;46994;54.976;73.404;2022-09-03T14:10:38;99515.44;;;25.25;45.30
59519;BME280;46994;54.976;73.404;2022-09-03T14:18:55;99480.69;;;25.20;43.09
59519;BME280;46994;54.976;73.404;2022-09-03T14:22:10;99491.44;;;25.35;42.64
59519;BME280;46994;54.976;73.404;2022-09-03T14:24:25;99474.25;;;25.30;42.60
59519;BME280;46994;54.976;73.404;2022-09-03T14:26:56;99462.50;;;25.24;42.91
59519;BME280;46994;54.976;73.404;2022-09-03T14:29:29;99455.19;;;25.20;45.82
59519;BME280;46994;54.976;73.404;2022-09-03T14:32:45;99459.44;;;25.31;42.98
59519;BME280;46994;54.976;73.404;2022-09-03T14:35:10;99460.53;;;25.30;42.03
59519;BME280;46994;54.976;73.404;2022-09-03T14:46:08;99425.41;;;25.32;43.89
59519;BME280;46994;54.976;73.404;2022-09-03T14:51:52;99414.13;;;25.33;42.18
59519;BME280;46994;54.976;73.404;2022-09-03T15:12:04;99348.59;;;25.32;40.81
59519;BME280;46994;54.976;73.404;2022-09-03T15:14:37;99350.56;;;25.26;42.65
59519;BME280;46994;54.976;73.404;2022-09-03T15:20:23;99326.66;;;25.32;41.40
59519;BME280;46994;54.976;73.404;2022-09-03T15:23:30;99334.28;;;25.35;41.12
59519;BME280;46994;54.976;73.404;2022-09-03T15:26:29;99321.97;;;25.32;42.20
59519;BME280;46994;54.976;73.404;2022-09-03T15:37:31;99299.66;;;25.20;43.29
59519;BME280;46994;54.976;73.404;2022-09-03T15:40:15;99302.41;;;25.20;41.61
59519;BME280;46994;54.976;73.404;2022-09-03T15:42:49;99270.31;;;25.02;42.02
59519;BME280;46994;54.976;73.404;2022-09-03T15:45:30;99282.09;;;25.21;40.13
59519;BME280;46994;54.976;73.404;2022-09-03T15:50:54;99271.78;;;25.32;39.78
59519;BME280;46994;54.976;73.404;2022-09-03T15:53:33;99272.41;;;25.29;41.21
59519;BME280;46994;54.976;73.404;2022-09-03T15:56:27;99257.94;;;25.23;41.94
59519;BME280;46994;54.976;73.404;2022-09-03T15:58:58;99245.78;;;25.29;41.89
59519;BME280;46994;54.976;73.404;2022-09-03T16:06:52;99221.47;;;25.23;41.31
59519;BME280;46994;54.976;73.404;2022-09-03T16:12:18;99204.69;;;25.24;40.88
59519;BME280;46994;54.976;73.404;2022-09-03T16:15:17;99198.19;;;25.20;41.62
59519;BME280;46994;54.976;73.404;2022-09-03T16:20:51;99184.44;;;25.39;39.38
59519;BME280;46994;54.976;73.404;2022-09-03T16:24:11;99162.50;;;25.39;38.86
59519;BME280;46994;54.976;73.404;2022-09-03T16:26:30;99169.81;;;25.43;39.74
59519;BME280;46994;54.976;73.404;2022-09-03T16:29:11;99152.59;;;25.24;40.75
59519;BME280;46994;54.976;73.404;2022-09-03T16:31:55;99166.13;;;25.34;39.39
59519;BME280;46994;54.976;73.404;2022-09-03T16:37:31;99159.91;;;25.48;38.66
59519;BME280;46994;54.976;73.404;2022-09-03T16:40:21;99149.84;;;25.57;37.74
59519;BME280;46994;54.976;73.404;2022-09-03T16:57:31;99148.00;;;25.52;43.16
59519;BME280;46994;54.976;73.404;2022-09-03T17:00:05;99140.47;;;25.44;38.07